x

Western Caribbean - 195 Nm Wsw Of Negril Jamiaca (42057) Weather Station

6:20 - Mon 21st Aug 2017 All times are UTC.

  • Wind
    18mph, 22mph gusts
  • Sea Temp 85°f
  • Ar Temp 84°f
  • Sea Pressure 1012.1mb

More Historic Weather Station data

Upgrade to MSW Pro to gain access to the past 30 days of data for over 8000 Wavebouys and Weather Stations around the globe.

Join

Comparision Forecast

View Surf forecast
   
Seg 08/21 6:20  -   -   -  18 22 mph 1012.1mb 85f 84f
6:10  -   -   -  18 22 mph 1012.1mb 85f 84f
6:00  -   -   -  18 22 mph 1012.2mb 85f 84f
5:50 4.5ft 7s 5s 20 22 mph 1012.2mb 85f 84f
5:40  -   -   -  18 22 mph 1012.2mb 85f 84f
5:30  -   -   -  20 22 mph 1012.2mb 85f 84f
5:20  -   -   -  18 22 mph 1012.5mb 85f 84f
5:10  -   -   -  18 22 mph 1012.8mb 85f 84f
5:00  -   -   -  18 22 mph 1012.8mb 85f 84f
4:50 5ft 7s 5s 18 22 mph 1012.8mb 85f 84f
4:40 5ft  -  5s 18 20 mph 1012.6mb 85f 84f
4:30  -   -   -  18 22 mph 1012.7mb 85f 84f
4:20  -   -   -  18 22 mph 1012.7mb 85f 84f
4:10  -   -   -  18 22 mph 1012.8mb 85f 84f
4:00  -   -   -  20 22 mph 1012.7mb 85f 84f
3:50 5ft 7s 5s 18 22 mph 1012.7mb 85f 84f
3:40  -   -   -  20 25 mph 1012.6mb 85f 84f
3:30  -   -   -  18 22 mph 1012.6mb 85f 84f
3:20  -   -   -  18 22 mph 1012.6mb 85f 84f
3:10  -   -   -  20 22 mph 1012.4mb 85f 84f
3:00  -   -   -  20 25 mph 1012.4mb 85f 84f
2:50 5ft 7s 5s 20 25 mph 1012.3mb 85f 84f
2:40  -   -   -  18 22 mph 1012.1mb 85f 84f
2:30  -   -   -  20 22 mph 1011.9mb 85f 84f
2:20  -   -   -  18 22 mph 1011.9mb 85f 84f
2:10  -   -   -  20 22 mph 1012mb 85f 84f
2:00  -   -   -  20 25 mph 1011.9mb 85f 84f
1:40  -   -   -  18 22 mph 1011.8mb 85f 84f
1:30  -   -   -  20 22 mph 1011.8mb 85f 84f
1:20  -   -   -  20 25 mph 1011.4mb 85f 84f
1:10  -   -   -  20 25 mph 1011.1mb 85f 83f
1:00  -   -   -  18 22 mph 1010.9mb 85f 83f
12:50 5ft 6s 5s 20 22 mph 1010.7mb 85f 83f
12:40  -   -   -  20 22 mph 1010.6mb 85f 83f
12:30  -   -   -  20 25 mph 1010.5mb 85f 83f
12:20  -   -   -  20 25 mph 1010.4mb - 83f
12:10  -   -   -  20 22 mph 1010.2mb 85f 83f
12:00  -   -   -  18 25 mph 1010mb 85f 83f
11:50 5ft 6s 5s 18 22 mph 1010mb 85f 83f
11:40  -   -   -  20 25 mph 1009.8mb 85f 83f
11:30  -   -   -  20 22 mph 1009.7mb 85f 83f
11:20  -   -   -  18 25 mph 1009.5mb 85f 83f
11:10  -   -   -  20 22 mph 1009.5mb 85f 83f
11:00  -   -   -  18 22 mph 1009.8mb 85f 83f
10:50 5ft 6s 5s 16 20 mph 1010mb 85f 83f
10:40  -   -   -  16 22 mph 1009.8mb 85f 82f
10:30  -   -   -  16 20 mph 1009.7mb 85f 82f
10:20  -   -   -  16 27 mph 1009.5mb 85f 81f
10:10  -   -   -  25 31 mph 1009.5mb 85f 84f
10:00  -   -   -  25 29 mph 1009.3mb 85f 85f
9:50 4ft 6s 4s 22 29 mph 1009.3mb 85f 84f
9:40  -   -   -  22 27 mph 1008.9mb 85f 84f
9:30  -   -   -  18 27 mph 1008.4mb 85f 83f
9:20  -   -   -  16 22 mph 1008.5mb 85f 82f
9:10  -   -   -  20 25 mph 1008.6mb 85f 84f
9:00  -   -   -  20 22 mph 1008.2mb 85f 84f
8:50 4.5ft 5s 4s 18 22 mph 1008.4mb 85f 84f
8:40 4.5ft  -  4s 20 25 mph 1008.4mb 85f 84f
8:30  -   -   -  16 22 mph 1008.8mb 85f 83f
8:20  -   -   -  13 18 mph 1009mb 85f 82f
8:10  -   -   -  18 20 mph 1009.1mb 85f 82f
8:00  -   -   -  20 25 mph 1008.9mb 85f 82f
7:50 4.5ft 5s 4s 22 29 mph 1008.8mb 85f 83f
7:40 4.5ft  -  4s 22 29 mph 1008.7mb 85f 83f
7:30  -   -   -  25 29 mph 1008.6mb 85f 82f
7:20  -   -   -  22 27 mph 1008.5mb 85f 82f
7:10  -   -   -  20 25 mph 1008.4mb 85f 82f
7:00  -   -   -  22 29 mph 1008.7mb 85f 82f
6:50 4.5ft 5s 4s 22 27 mph 1009.2mb 85f 82f
6:40  -   -   -  22 27 mph 1009.1mb 85f 81f
6:30  -   -   -  20 27 mph 1009.3mb 85f 80f
6:20  -   -   -  25 29 mph 1009.4mb 85f 81f
6:10  -   -   -  22 29 mph 1009.8mb 85f 82f
6:00  -   -   -  20 27 mph 1010mb 85f 81f
5:50 3.5ft 5s 4s 18 27 mph 1010.5mb 85f 81f
5:40  -   -   -  18 22 mph 1010.4mb 85f 81f
5:30  -   -   -  22 29 mph 1010.5mb 85f 81f
5:20  -   -   -  27 36 mph 1010.4mb 85f 82f
5:10  -   -   -  11 20 mph 1010.5mb 85f 83f
5:00  -   -   -  11 13 mph 1010.5mb 85f 82f
4:50 3.5ft 5s 4s 16 29 mph 1010.4mb 85f 81f
4:40 3.5ft  -  4s 20 31 mph 1010.5mb 85f 85f
4:30  -   -   -  18 22 mph 1010.5mb 85f 85f
4:20  -   -   -  16 22 mph 1010.8mb 85f 85f
4:10  -   -   -  13 18 mph 1010.8mb 85f 85f
4:00  -   -   -  16 20 mph 1010.8mb 85f 85f
3:50 3.5ft 4s 4s 16 20 mph 1010.8mb 85f 85f
3:40  -   -   -  16 20 mph 1010.8mb 85f 85f
3:30  -   -   -  16 20 mph 1010.8mb 85f 85f
3:20  -   -   -  16 18 mph 1010.8mb - 85f
3:10  -   -   -  16 18 mph 1010.7mb 85f 85f
3:00  -   -   -  16 20 mph 1010.7mb 85f 85f
2:50 3.5ft 4s 4s 18 20 mph 1010.8mb 85f 85f
2:40  -   -   -  18 20 mph 1010.9mb 85f 85f
2:30  -   -   -  18 22 mph 1011.1mb 85f 85f
2:20  -   -   -  16 20 mph 1011mb 85f 85f
2:10  -   -   -  16 20 mph 1010.9mb 85f 85f
2:00  -   -   -  16 20 mph 1010.6mb 85f 85f
1:20  -   -   -  16 20 mph 1010.1mb 85f 85f
1:10  -   -   -  16 20 mph 1009.9mb 85f 86f
1:00  -   -   -  20 22 mph 1009.7mb 85f 85f
12:50 3ft 4s 4s 20 25 mph 1009.6mb 85f 85f
12:40  -   -   -  20 22 mph 1009.5mb 85f 85f
12:30  -   -   -  20 22 mph 1009.5mb 85f 85f
12:20  -   -   -  20 25 mph 1009.6mb 85f 85f
12:10  -   -   -  18 25 mph 1009.5mb 85f 85f
12:00  -   -   -  18 22 mph 1009.8mb 85f 85f
Dom 08/20 11:40 3ft  -  4s 13 22 mph 1009.8mb 85f 84f
11:30  -   -   -  16 22 mph 1009.8mb 85f 85f
11:20  -   -   -  16 18 mph 1009.6mb 85f 85f
11:10  -   -   -  16 20 mph 1009.5mb 85f 85f
11:00  -   -   -  16 20 mph 1009.5mb 85f 85f
10:50 3ft 4s 4s 16 20 mph 1009.2mb 85f 85f
10:40  -   -   -  18 20 mph 1009mb 85f 85f
10:30  -   -   -  16 20 mph 1009mb - 85f
10:20  -   -   -  16 18 mph 1009mb 85f 85f
10:10  -   -   -  16 18 mph 1009mb 85f 85f
10:00  -   -   -  16 18 mph 1008.9mb 85f 85f
9:50 2.5ft 4s 4s 13 18 mph 1009mb 85f 85f
9:40 2.5ft  -  4s 13 16 mph 1009mb 85f 85f
9:30  -   -   -  13 16 mph 1009.1mb 85f 85f
9:20  -   -   -  13 16 mph 1009.2mb 85f 85f
9:10  -   -   -  13 16 mph 1009.3mb 85f 85f
9:00  -   -   -  13 18 mph 1009.5mb 85f 85f
8:50 2.5ft 4s 4s 13 18 mph 1009.5mb 85f 85f
8:40  -   -   -  13 16 mph 1009.8mb 85f 85f
8:30  -   -   -  16 18 mph 1009.8mb 85f 85f
8:20  -   -   -  16 18 mph 1009.9mb 85f 85f
8:10  -   -   -  16 18 mph 1010mb 85f 85f
8:00  -   -   -  16 18 mph 1010.2mb 85f 85f
7:50 2.5ft 4s 4s 16 18 mph 1010.3mb 85f 85f
7:40  -   -   -  16 20 mph 1010.5mb 85f 85f
7:30  -   -   -  16 18 mph 1010.6mb 85f 85f
7:20  -   -   -  16 18 mph 1010.6mb 85f 85f
7:10  -   -   -  16 18 mph 1010.8mb 85f 85f
7:00  -   -   -  16 18 mph 1010.9mb 85f 85f
6:50 2.5ft 8s 4s 16 18 mph 1011.1mb 85f 85f
6:40  -   -   -  16 18 mph 1011mb 85f 85f
6:30  -   -   -  13 18 mph 1011mb 85f 85f
6:20  -   -   -  16 18 mph 1011.1mb 85f 85f
6:10  -   -   -  16 18 mph 1011.2mb 85f 85f
6:00  -   -   -  13 16 mph 1011.4mb 85f 85f
5:50 2.5ft 6s 4s 13 18 mph 1011.6mb 85f 85f
5:40  -   -   -  16 18 mph 1011.5mb 85f 85f
5:30  -   -   -  13 18 mph 1011.7mb 85f 85f
5:20  -   -   -  13 16 mph 1011.9mb 85f 85f
5:10  -   -   -  13 16 mph 1011.9mb 85f 85f
5:00  -   -   -  13 16 mph 1011.9mb 85f 85f
4:50 2.5ft 7s 4s 13 16 mph 1012.1mb 85f 85f
4:40 2.5ft  -  4s 13 16 mph 1012.4mb 85f 85f
4:30  -   -   -  13 18 mph 1012.4mb 85f 85f
4:20  -   -   -  13 18 mph 1012.3mb 85f 85f
4:10  -   -   -  13 16 mph 1012.2mb 85f 85f
4:00  -   -   -  13 16 mph 1012.4mb 85f 85f
3:50 2.5ft 7s 4s 13 16 mph 1012.5mb 85f 85f
3:40 2.5ft  -  4s 13 16 mph 1012.4mb 85f 85f
3:30  -   -   -  13 16 mph 1012.4mb 85f 85f
3:20  -   -   -  11 13 mph 1012.4mb 85f 85f
3:10  -   -   -  11 13 mph 1012.3mb 85f 85f
3:00  -   -   -  11 13 mph 1012.2mb 85f 85f
2:50 2.5ft 7s 5s 11 13 mph 1012.2mb 85f 85f
2:40 2.5ft  -  5s 11 13 mph 1012.2mb 85f 85f
2:30  -   -   -  11 13 mph 1012.2mb 85f 85f
2:20  -   -   -  9 11 mph 1012.2mb 85f 85f
2:10  -   -   -  9 11 mph 1012.2mb 85f 85f
2:00  -   -   -  9 11 mph 1012.1mb 85f 85f
1:50 2.5ft 7s 5s 9 11 mph 1011.9mb 85f 85f
1:40  -   -   -  9 11 mph 1012mb 85f 85f
1:30  -   -   -  9 11 mph 1011.8mb 85f 84f
1:20  -   -   -  9 11 mph 1011.7mb 85f 84f
1:10  -   -   -  9 11 mph 1011.5mb 85f 84f
1:00  -   -   -  9 11 mph 1011.5mb 85f 84f
12:50 2.5ft 7s 5s 9 11 mph 1011.5mb 85f 84f
12:40 2.5ft  -  5s 9 11 mph 1011.3mb 85f 84f
12:30  -   -   -  9 11 mph 1011.1mb 85f 84f
12:20  -   -   -  9 11 mph 1010.8mb 85f 84f
12:10  -   -   -  9 11 mph 1010.8mb 85f 84f
12:00  -   -   -  9 11 mph 1010.6mb 85f 84f
11:50 2.5ft 7s 5s 9 11 mph 1010.5mb 85f 84f
11:40  -   -   -  9 11 mph 1010.5mb 85f 84f
11:30  -   -   -  9 11 mph 1010.4mb 85f 84f
11:20  -   -   -  9 11 mph 1010.2mb 85f 84f
11:10  -   -   -  9 11 mph 1010mb 85f 84f
11:00  -   -   -  9 13 mph 1010mb 85f 84f
10:50 2.5ft 7s 5s 9 11 mph 1010.1mb 85f 84f
10:40  -   -   -  7 9 mph 1010.1mb 85f 84f
10:30  -   -   -  7 9 mph 1010mb 85f 84f
10:20  -   -   -  9 11 mph 1010mb 85f 84f
10:10  -   -   -  7 9 mph 1010mb 85f 84f
10:00  -   -   -  9 9 mph 1009.9mb 85f 84f
9:50 2.5ft 7s 5s 7 9 mph 1010mb 85f 84f
9:40 2.5ft  -  5s 9 9 mph 1010mb 85f 84f
9:30  -   -   -  7 11 mph 1010mb 85f 84f
9:20  -   -   -  9 11 mph 1010mb 85f 84f
9:10  -   -   -  7 9 mph 1009.9mb 85f 84f
9:00  -   -   -  9 11 mph 1009.9mb 85f 84f
8:50 2.5ft 7s 5s 9 11 mph 1010mb 85f 84f
8:40  -   -   -  9 11 mph 1010mb 85f 84f
8:30  -   -   -  9 11 mph 1010.1mb 85f 84f
8:20  -   -   -  9 11 mph 1010mb - 84f
8:10  -   -   -  9 11 mph 1010.1mb - 84f
8:00  -   -   -  9 11 mph 1010.1mb 85f 84f
7:50 2.5ft 7s 5s 9 11 mph 1010.2mb 85f 84f
7:40  -   -   -  9 11 mph 1010.3mb 85f 84f
7:30  -   -   -  9 11 mph 1010.3mb 85f 84f
7:20  -   -   -  9 11 mph 1010.4mb 85f 84f
7:10  -   -   -  9 11 mph 1010.5mb 85f 84f
7:00  -   -   -  9 11 mph 1010.6mb 85f 84f
6:50 2.5ft 7s 4s 9 13 mph 1010.8mb 85f 84f
6:40  -   -   -  11 13 mph 1010.9mb 85f 84f
6:30  -   -   -  11 13 mph 1010.9mb 85f 84f
6:20  -   -   -  11 13 mph 1011mb 85f 84f
6:10  -   -   -  11 13 mph 1011.1mb 85f 84f
6:00  -   -   -  11 13 mph 1011mb 85f 85f
5:50 2.5ft 7s 4s 11 13 mph 1011mb 85f 85f
5:30  -   -   -  11 13 mph 1011.1mb 85f 85f
5:20  -   -   -  11 13 mph 1011.3mb 85f 85f
5:10  -   -   -  11 16 mph 1011.4mb 85f 85f
5:00  -   -   -  9 11 mph 1011.6mb 85f 85f
4:50 2.5ft 6s 4s 9 11 mph 1011.7mb 85f 85f
4:40  -   -   -  11 13 mph 1011.9mb 85f 85f
4:30  -   -   -  11 13 mph 1011.9mb 85f 85f
4:20  -   -   -  11 13 mph 1012mb 85f 85f
4:10  -   -   -  11 13 mph 1011.9mb 85f 85f
4:00  -   -   -  11 13 mph 1011.8mb 85f 85f
3:50 2.5ft 6s 5s 11 13 mph 1011.8mb 85f 85f
3:40  -   -   -  11 13 mph 1011.8mb 85f 85f
3:30  -   -   -  9 11 mph 1011.8mb 85f 85f
3:20  -   -   -  11 13 mph 1011.8mb 85f 85f
3:10  -   -   -  11 13 mph 1011.8mb 85f 85f
3:00  -   -   -  9 11 mph 1011.8mb 85f 85f
2:50 2.5ft 8s 5s 9 11 mph 1011.8mb 85f 85f
2:40  -   -   -  11 13 mph 1011.5mb 85f 85f
2:30  -   -   -  11 13 mph 1011.6mb 85f 85f
2:20  -   -   -  11 13 mph 1011.5mb 85f 85f
2:10  -   -   -  11 13 mph 1011.3mb 85f 85f
2:00  -   -   -  11 13 mph 1011.3mb 85f 84f
1:50 2.5ft 7s 4s 11 13 mph 1011.1mb 85f 84f
1:40 2.5ft  -  4s 11 13 mph 1011.1mb 85f 84f
1:30  -   -   -  11 13 mph 1010.8mb 85f 84f
1:20  -   -   -  9 13 mph 1010.7mb 85f 84f
1:10  -   -   -  11 11 mph 1010.5mb 85f 84f
1:00  -   -   -  9 11 mph 1010.6mb 85f 84f
12:50 2.5ft 8s 4s 9 13 mph 1010.5mb 85f 83f
12:40  -   -   -  13 16 mph 1010.3mb 85f 83f
12:30  -   -   -  16 18 mph 1010.1mb 85f -
12:20  -   -   -  13 20 mph 1009.8mb 85f 85f
12:10  -   -   -  11 13 mph 1010mb 85f 85f
12:00  -   -   -  11 16 mph 1009.8mb 85f 85f
Sáb 08/19 11:50 3ft 8s 4s 9 11 mph 1009.7mb 85f 84f
11:40  -   -   -  7 11 mph 1009.7mb 85f 84f
11:30  -   -   -  7 9 mph 1009.5mb 85f 83f
11:20  -   -   -  4 7 mph 1009.6mb 85f 82f
11:10  -   -   -  4 7 mph 1009.4mb 85f 80f
11:00  -   -   -  9 18 mph 1009.4mb 85f 80f
10:50 3ft 8s 4s 20 29 mph 1009.5mb 85f 83f
10:40  -   -   -  13 20 mph 1009.5mb 85f 85f
10:30  -   -   -  13 16 mph 1009.3mb 85f 85f
10:20  -   -   -  13 16 mph 1009.4mb 85f 85f
10:10  -   -   -  11 16 mph 1009.3mb 85f 85f
10:00  -   -   -  13 16 mph 1009.2mb 85f 85f
9:50 3ft 8s 4s 13 16 mph 1009.3mb 85f 85f
9:40  -   -   -  13 18 mph 1009.2mb 85f 85f
9:30  -   -   -  13 16 mph 1009.3mb 85f 85f
9:20  -   -   -  13 16 mph 1009.2mb 85f 85f
9:10  -   -   -  13 16 mph 1009.2mb 85f 85f
9:00  -   -   -  13 16 mph 1009.3mb 85f 85f
8:50 3ft 8s 5s 11 13 mph 1009.5mb 85f 85f
8:40 3ft  -  5s 11 13 mph 1009.5mb 85f 85f
8:30  -   -   -  11 13 mph 1009.7mb 85f 85f
8:20  -   -   -  11 13 mph 1009.8mb 85f 85f
8:10  -   -   -  11 13 mph 1009.9mb 85f 85f
8:00  -   -   -  11 16 mph 1010mb 85f 85f
7:50 3ft 8s 5s 11 13 mph 1010mb 85f 85f
7:40  -   -   -  13 16 mph 1010.1mb 86f 85f
7:30  -   -   -  13 16 mph 1010.2mb - 85f
7:20  -   -   -  11 16 mph 1010.1mb 85f 85f
7:10  -   -   -  11 13 mph 1010.3mb 85f 85f
7:00  -   -   -  11 16 mph 1010.5mb 85f 85f
6:50 3ft 8s 5s 11 16 mph 1010.7mb 85f 85f
6:40  -   -   -  9 13 mph 1010.8mb 85f 84f
6:30  -   -   -  13 29 mph 1011.1mb 85f 84f
6:20  -   -   -  9 11 mph 1011.2mb 85f 85f
6:10  -   -   -  7 9 mph 1011.1mb 85f 84f
6:00  -   -   -  9 11 mph 1011.3mb 85f 84f
5:50 2.5ft 8s 5s 9 13 mph 1011.3mb 85f 85f
5:40 2.5ft  -  5s 9 11 mph 1011.4mb 85f 85f
5:30  -   -   -  9 11 mph 1011.4mb 85f 85f
5:20  -   -   -  11 11 mph 1011.4mb 85f 85f
5:10  -   -   -  11 13 mph 1011.4mb 85f 85f
5:00  -   -   -  11 13 mph 1011.6mb 85f 85f
4:50 2.5ft 5s 5s 11 13 mph 1011.7mb 85f 85f
4:40 2.5ft  -  5s 11 13 mph 1011.7mb 85f 85f
4:30  -   -   -  11 13 mph 1011.7mb 85f 85f
4:20  -   -   -  11 13 mph 1011.7mb 85f 85f
4:10  -   -   -  9 13 mph 1011.8mb 85f 85f
4:00  -   -   -  11 13 mph 1011.8mb 85f 85f
3:50 3ft 6s 5s 11 13 mph 1011.8mb 85f 85f
3:40  -   -   -  11 13 mph 1011.8mb 85f 85f
3:30  -   -   -  11 13 mph 1011.8mb 85f 84f
3:20  -   -   -  11 16 mph 1011.8mb 85f 84f
3:10  -   -   -  11 16 mph 1011.8mb 85f 85f
3:00  -   -   -  11 16 mph 1011.7mb 85f 84f
2:50 3.5ft 8s 5s 11 13 mph 1011.6mb 85f 84f
2:40 3.5ft  -  5s 11 13 mph 1011.4mb 85f 84f
2:30  -   -   -  11 13 mph 1011.4mb 85f 84f
2:20  -   -   -  11 13 mph 1011.3mb 85f 84f
2:10  -   -   -  11 13 mph 1011.4mb 85f 84f
2:00  -   -   -  11 16 mph 1011.3mb 85f 84f
1:50 3.5ft 6s 5s 11 13 mph 1011.3mb 85f 84f
1:40  -   -   -  11 13 mph 1011.3mb 85f 84f
1:30  -   -   -  11 13 mph 1011.2mb 85f 84f
1:20  -   -   -  11 13 mph 1011mb 85f 84f
1:10  -   -   -  11 13 mph 1010.8mb 85f 84f
1:00  -   -   -  11 16 mph 1010.8mb 85f 84f
12:50 3.5ft 6s 5s 9 13 mph 1010.7mb 85f 84f
12:40  -   -   -  9 11 mph 1010.7mb 85f 84f
12:30  -   -   -  9 11 mph 1010.6mb 85f 84f
12:20  -   -   -  11 13 mph 1010.6mb 85f 83f
12:10  -   -   -  11 16 mph 1010.5mb 85f 84f
12:00  -   -   -  11 13 mph 1010.5mb 85f 84f
11:50 3.5ft 6s 5s 11 13 mph 1010.4mb 85f 84f
11:40  -   -   -  11 13 mph 1010.3mb 85f 84f
11:30  -   -   -  11 13 mph 1010.3mb 85f 84f
11:20  -   -   -  11 13 mph 1010.2mb 85f 84f
11:10  -   -   -  9 11 mph 1010.1mb 85f 84f
11:00  -   -   -  11 13 mph 1010.2mb 85f 84f
10:50 3.5ft 7s 5s 11 13 mph 1010.2mb 85f 84f
10:40 3.5ft  -  5s 11 13 mph 1010.4mb 85f 84f
10:30  -   -   -  13 16 mph 1010.5mb 85f 84f
10:20  -   -   -  11 16 mph 1010.4mb 85f 84f
10:10  -   -   -  11 13 mph 1010.3mb 85f 84f
10:00  -   -   -  11 13 mph 1010.3mb - 84f
9:50 3.5ft 6s 5s 11 13 mph 1010.4mb 85f 84f
9:40  -   -   -  11 13 mph 1010.4mb 85f 84f
9:30  -   -   -  11 11 mph 1010.4mb 85f 84f
9:20  -   -   -  11 13 mph 1010.5mb 85f 84f
9:10  -   -   -  9 13 mph 1010.3mb 85f 84f
9:00  -   -   -  11 13 mph 1010.4mb 85f 84f
8:50 3.5ft 7s 5s 9 11 mph 1010.4mb 85f 84f
8:40 3.5ft  -  5s 11 13 mph 1010.5mb 85f 84f
8:30  -   -   -  11 13 mph 1010.4mb 85f 84f
8:20  -   -   -  9 11 mph 1010.5mb 85f 84f
8:10  -   -   -  9 11 mph 1010.5mb 85f 84f
8:00  -   -   -  11 13 mph 1010.7mb 85f 84f
7:50 3.5ft 7s 5s 11 13 mph 1010.7mb 85f 84f
7:40  -   -   -  11 16 mph 1010.9mb 85f 84f
7:30  -   -   -  11 13 mph 1011.1mb 85f 84f
7:20  -   -   -  11 13 mph 1011.1mb 85f 84f
7:10  -   -   -  11 13 mph 1011.1mb 85f 84f
7:00  -   -   -  11 16 mph 1011.2mb 85f 84f
6:50 3.5ft 7s 5s 13 16 mph 1011.4mb 85f 85f
6:40  -   -   -  11 16 mph 1011.3mb 85f 85f
6:30  -   -   -  11 13 mph 1011.3mb 85f 85f
6:20  -   -   -  11 16 mph 1011.4mb 85f 85f
6:10  -   -   -  13 16 mph 1011.4mb 85f 85f
6:00  -   -   -  13 16 mph 1011.5mb 85f 85f
5:50 3.5ft 8s 5s 13 16 mph 1011.7mb 85f 85f
5:40  -   -   -  13 16 mph 1011.8mb 85f 85f
5:30  -   -   -  13 16 mph 1011.9mb 85f 85f
5:20  -   -   -  13 16 mph 1012mb 85f 85f
5:10  -   -   -  11 16 mph 1012mb 85f 85f
5:00  -   -   -  13 18 mph 1012.2mb 85f 85f
4:50 3.5ft 8s 5s 13 18 mph 1012.2mb 85f 85f
4:40 3.5ft  -  5s 13 16 mph 1012.5mb 85f 85f
4:30  -   -   -  13 16 mph 1012.6mb 85f 85f
4:20  -   -   -  13 16 mph 1012.6mb 85f 85f
4:10  -   -   -  13 16 mph 1012.8mb 85f 85f
4:00  -   -   -  13 16 mph 1012.5mb 85f 85f
3:50 3.5ft 6s 5s 13 16 mph 1012.6mb 84f 85f
3:40 3.5ft  -  5s 13 16 mph 1012.6mb 84f 85f
3:30  -   -   -  13 16 mph 1012.7mb 85f 85f
3:20  -   -   -  13 16 mph 1012.6mb 85f 85f
3:10  -   -   -  11 16 mph 1012.5mb 85f 85f
3:00  -   -   -  13 16 mph 1012.4mb 85f 85f
2:50 3.5ft 8s 5s 13 16 mph 1012.5mb 85f 85f
2:40  -   -   -  13 16 mph 1012.5mb 85f 85f
2:30  -   -   -  13 18 mph 1012.4mb 85f 85f
2:20  -   -   -  13 16 mph 1012.2mb 85f 85f
2:10  -   -   -  13 18 mph 1012.2mb 85f 85f
2:00  -   -   -  13 16 mph 1012.2mb 85f 85f
1:50 3.5ft 7s 5s 13 18 mph 1012mb 85f 85f
1:40  -   -   -  13 16 mph 1011.9mb 85f 85f
1:30  -   -   -  13 16 mph 1011.9mb 85f 85f
1:20  -   -   -  13 16 mph 1011.7mb 85f 85f
1:10  -   -   -  13 16 mph 1011.7mb 85f 85f
1:00  -   -   -  13 18 mph 1011.6mb 85f 85f
12:50 3.5ft 7s 5s 13 18 mph 1011.6mb 85f 85f
12:40  -   -   -  13 18 mph 1011.4mb 85f 85f
12:30  -   -   -  13 16 mph 1011.3mb 85f 85f
12:20  -   -   -  13 16 mph 1011.1mb 85f 85f
12:10  -   -   -  13 16 mph 1010.9mb 85f 85f
12:00  -   -   -  11 16 mph 1010.8mb 85f 85f
Sex 08/18 11:50 3.5ft 8s 5s 11 13 mph 1010.7mb 85f 85f
11:40 3.5ft  -  5s 11 13 mph 1010.6mb 85f 85f
11:30  -   -   -  11 13 mph 1010.6mb 85f 85f
11:20  -   -   -  11 13 mph 1010.6mb 85f 85f
11:10  -   -   -  11 13 mph 1010.3mb 85f 85f
11:00  -   -   -  11 13 mph 1010.1mb 85f 85f
10:40  -   -   -  11 13 mph 1010mb 85f 85f
10:30  -   -   -  11 13 mph 1009.8mb 85f 85f
10:20  -   -   -  11 16 mph 1009.8mb 85f 85f
10:10  -   -   -  11 13 mph 1009.9mb 85f 85f
10:00  -   -   -  11 13 mph 1009.9mb 85f 86f
9:50 3.5ft 8s 5s 13 16 mph 1010mb 85f 85f
9:40  -   -   -  13 16 mph 1010mb 85f 86f
9:30  -   -   -  11 13 mph 1010mb 85f 86f
9:20  -   -   -  11 16 mph 1010.1mb 85f 86f
9:10  -   -   -  13 16 mph 1010.1mb 85f 86f
9:00  -   -   -  11 16 mph 1010.3mb 85f 86f
8:50 3.5ft 6s 5s 11 13 mph 1010.2mb 85f 86f
8:40  -   -   -  13 16 mph 1010.3mb 85f 86f
8:30  -   -   -  13 16 mph 1010.4mb 85f 86f
8:20  -   -   -  13 16 mph 1010.3mb 85f 86f
8:10  -   -   -  13 16 mph 1010.3mb 85f 86f
8:00  -   -   -  13 16 mph 1010.4mb 85f 86f
7:50 3.5ft 8s 5s 13 18 mph 1010.5mb 85f 86f
7:40 3.5ft  -  5s 13 16 mph 1010.6mb 85f 86f
7:30  -   -   -  13 18 mph 1010.8mb 85f 86f
7:20  -   -   -  16 18 mph 1010.9mb 85f 86f
7:10  -   -   -  16 20 mph 1010.9mb 85f 86f
7:00  -   -   -  16 20 mph 1011mb 85f 86f
6:50 3.5ft 5s 5s 16 20 mph 1010.9mb 85f 86f
6:40  -   -   -  16 20 mph 1011mb 85f 86f
6:30  -   -   -  16 18 mph 1011.1mb 85f 86f
6:20  -   -   -  16 18 mph 1011.3mb 85f 86f
6:10  -   -   -  16 18 mph 1011.4mb 85f 85f
6:00  -   -   -  16 18 mph 1011.4mb 85f 85f
5:50 3.5ft 6s 5s 16 18 mph 1011.5mb 85f 86f
5:40  -   -   -  16 18 mph 1011.6mb 85f 86f
5:30  -   -   -  16 18 mph 1011.7mb 85f 85f
5:20  -   -   -  13 18 mph 1011.7mb 85f 85f
5:10  -   -   -  13 18 mph 1011.8mb 85f 85f
5:00  -   -   -  13 18 mph 1011.8mb 85f 85f
4:50 3.5ft 7s 5s 13 18 mph 1011.9mb 85f 85f
4:40  -   -   -  13 16 mph 1012.1mb 85f 85f
4:30  -   -   -  13 16 mph 1012.2mb 85f 85f
4:20  -   -   -  13 16 mph 1012.4mb 85f 85f
4:10  -   -   -  13 16 mph 1012.5mb 85f 85f
4:00  -   -   -  13 16 mph 1012.5mb 85f 85f
3:50 3.5ft 7s 5s 13 16 mph 1012.5mb 85f 85f
3:40  -   -   -  13 16 mph 1012.5mb 85f 85f
3:30  -   -   -  11 16 mph 1012.5mb 85f 85f
3:20  -   -   -  13 16 mph 1012.5mb 85f 85f
3:10  -   -   -  13 16 mph 1012.4mb 85f 85f
3:00  -   -   -  13 16 mph 1012.5mb 85f 85f
2:50 3.5ft 6s 5s 13 16 mph 1012.4mb 85f 85f
2:40 3.5ft  -  5s 13 16 mph 1012.4mb 85f 85f
2:30  -   -   -  13 18 mph 1012.3mb 85f 85f
2:20  -   -   -  13 16 mph 1012.3mb 85f 85f
2:10  -   -   -  13 16 mph 1012.4mb 85f 85f
2:00  -   -   -  13 16 mph 1012.4mb 85f 85f
1:50 3.5ft 6s 5s 13 16 mph 1012.2mb 85f 85f
1:40 3.5ft  -  5s 13 18 mph 1012.2mb 85f 85f
1:30  -   -   -  13 16 mph 1012.1mb 85f 85f
1:20  -   -   -  13 16 mph 1012.1mb 85f 85f
1:10  -   -   -  13 18 mph 1011.9mb 85f 85f
1:00  -   -   -  13 18 mph 1012mb 85f 85f
12:50 3.5ft 8s 5s 16 18 mph 1011.8mb 85f 85f
12:40 3.5ft  -  5s 13 18 mph 1011.6mb 85f 85f
12:30  -   -   -  16 18 mph 1011.3mb - 85f
12:20  -   -   -  13 16 mph 1011.1mb - 85f
12:10  -   -   -  13 16 mph 1011mb 85f 85f
12:00  -   -   -  16 18 mph 1010.9mb 85f 85f
11:50 3.5ft 5s 4s 13 18 mph 1010.9mb 85f 85f
11:40  -   -   -  13 18 mph 1010.8mb 85f 85f
11:30  -   -   -  13 16 mph 1010.7mb 85f 85f
11:20  -   -   -  13 16 mph 1010.7mb 85f 85f
11:10  -   -   -  13 16 mph 1010.5mb 85f 85f
11:00  -   -   -  13 18 mph 1010.5mb 85f 85f
10:50 3.5ft 7s 4s 13 16 mph 1010.5mb 85f 85f
10:40  -   -   -  13 16 mph 1010.5mb 85f 85f
10:30  -   -   -  13 18 mph 1010.3mb 85f 85f
10:20  -   -   -  13 18 mph 1010.3mb 85f 85f
10:10  -   -   -  16 18 mph 1010.3mb 85f 85f
10:00  -   -   -  16 18 mph 1010.3mb 84f 85f
9:50 3.5ft 8s 5s 16 20 mph 1010.3mb 84f 85f
9:40  -   -   -  16 20 mph 1010.3mb 84f 84f
9:30  -   -   -  16 20 mph 1010.3mb 84f 85f
9:20  -   -   -  18 20 mph 1010.3mb 84f 85f
9:10  -   -   -  16 20 mph 1010.2mb 84f 85f
9:00  -   -   -  16 20 mph 1010.1mb 84f 84f
8:50 3.5ft 6s 4s 16 20 mph 1010mb 85f 85f
8:40 3.5ft  -  4s 18 20 mph 1010mb 85f 85f
8:30  -   -   -  18 20 mph 1010.1mb 85f 85f
8:20  -   -   -  18 20 mph 1010.2mb 85f 85f
8:10  -   -   -  18 20 mph 1010.2mb 85f 84f
8:00  -   -   -  18 20 mph 1010.3mb 85f 84f
7:50 3.5ft 5s 5s 18 20 mph 1010.3mb 85f 85f
7:40 3.5ft  -  5s 16 20 mph 1010.3mb 85f 85f
7:30  -   -   -  16 20 mph 1010.4mb 85f 85f
7:20  -   -   -  16 18 mph 1010.5mb 85f 85f
7:10  -   -   -  16 18 mph 1010.6mb 85f 85f
7:00  -   -   -  16 20 mph 1010.7mb 85f 85f
6:50 3.5ft 8s 5s 16 20 mph 1010.9mb 85f 85f
6:40 3.5ft  -  5s 16 20 mph 1011.1mb 85f 85f
6:30  -   -   -  16 18 mph 1011.4mb 85f 85f
6:20  -   -   -  16 20 mph 1011.5mb - 85f
6:10  -   -   -  16 20 mph 1011.7mb 85f 85f
6:00  -   -   -  16 20 mph 1011.9mb 85f 85f
5:50 3.5ft 8s 4s 18 20 mph 1012.1mb 85f 85f
5:40 3.5ft  -  4s 18 20 mph 1012.2mb 85f 85f
5:30  -   -   -  18 20 mph 1012.4mb 85f 85f
5:20  -   -   -  18 22 mph 1012.4mb 85f 85f
5:10  -   -   -  18 22 mph 1012.3mb 85f 85f
5:00  -   -   -  16 20 mph 1012.4mb 85f 85f
4:50 3.5ft 8s 5s 16 20 mph 1012.5mb 85f 85f
4:40  -   -   -  18 20 mph 1012.6mb 85f 85f
4:30  -   -   -  18 20 mph 1012.7mb - 85f
4:20  -   -   -  16 20 mph 1012.9mb 85f 85f
4:10  -   -   -  16 20 mph 1012.8mb 85f 85f
4:00  -   -   -  18 20 mph 1012.9mb 85f 85f
3:50 3.5ft 8s 5s 16 18 mph 1013.1mb 85f 85f
3:40  -   -   -  11 16 mph 1013.3mb 85f 85f
3:30  -   -   -  11 13 mph 1013.3mb 85f 85f
3:20  -   -   -  11 13 mph 1013.3mb 85f 85f
3:10  -   -   -  11 16 mph 1013.3mb 85f 85f
3:00  -   -   -  13 16 mph 1013.3mb 85f 85f
2:50 3.5ft 8s 5s 11 16 mph 1013.3mb 85f 85f
2:40 3.5ft  -  5s 13 16 mph 1013.3mb 85f 85f
2:30  -   -   -  13 16 mph 1013.2mb 85f 85f
2:20  -   -   -  13 16 mph 1013.2mb 85f 85f
2:10  -   -   -  13 16 mph 1013.1mb 85f 85f
2:00  -   -   -  11 16 mph 1013.1mb 85f 85f
1:50 3.5ft 8s 5s 13 16 mph 1013mb 85f 85f
1:40  -   -   -  13 16 mph 1012.9mb 85f 85f
1:30  -   -   -  11 13 mph 1012.9mb 85f 85f
1:20  -   -   -  11 13 mph 1012.8mb 85f 85f
1:10  -   -   -  11 13 mph 1012.8mb 85f 85f
1:00  -   -   -  11 13 mph 1012.6mb 85f 85f
12:50 3.5ft 8s 5s 11 13 mph 1012.6mb 85f 85f
12:40 3.5ft  -  5s 11 16 mph 1012.6mb 85f 85f
12:30  -   -   -  13 16 mph 1012.5mb 85f 85f
12:20  -   -   -  11 13 mph 1012.5mb 85f 85f
12:10  -   -   -  13 16 mph 1012.6mb 85f 85f
12:00  -   -   -  13 18 mph 1012.6mb 85f 85f
Qui 08/17 11:50 3.5ft 8s 5s 11 16 mph 1012.5mb 85f 85f
11:40  -   -   -  9 9 mph 1012.5mb 85f 85f
11:30  -   -   -  9 11 mph 1012.5mb 85f 85f
11:20  -   -   -  11 13 mph 1012.5mb 85f 85f
11:10  -   -   -  9 11 mph 1012.4mb 85f 86f
11:00  -   -   -  9 13 mph 1012.2mb 85f 86f
10:50 3.5ft 8s 5s 11 13 mph 1012mb 85f 86f
10:40  -   -   -  9 13 mph 1012.2mb 85f 86f
10:30  -   -   -  9 11 mph 1012.2mb 85f 86f
10:20  -   -   -  9 9 mph 1012.2mb 85f 86f
10:10  -   -   -  9 11 mph 1012.4mb 85f 86f
10:00  -   -   -  9 11 mph 1012.2mb 85f 86f
9:50 3.5ft 8s 5s 9 13 mph 1012.3mb 85f 86f
9:40  -   -   -  11 13 mph 1012.2mb 85f 86f
9:30  -   -   -  11 13 mph 1012.2mb 85f 86f
9:20  -   -   -  9 11 mph 1012.2mb 85f 86f
9:10  -   -   -  9 11 mph 1012.3mb 85f 86f
9:00  -   -   -  9 9 mph 1012.2mb 86f 86f
8:50 3.5ft 8s 5s 7 9 mph 1012.1mb 85f 86f
8:40 3.5ft  -  5s 7 9 mph 1012.2mb 85f 86f
8:30  -   -   -  7 9 mph 1012.3mb 85f 86f
8:20  -   -   -  7 9 mph 1012.2mb 85f 85f
8:10  -   -   -  7 9 mph 1012.2mb 85f 85f
8:00  -   -   -  9 11 mph 1012.2mb 85f 85f
7:50 3.5ft 8s 5s 9 11 mph 1012.2mb 85f 85f
7:40 3.5ft  -  5s 9 11 mph 1012.2mb 85f 85f
7:30  -   -   -  9 11 mph 1012.3mb 85f 85f